sensor_id;sensor_type;location;lat;lon;timestamp;temperature;humidity
38788;DHT22;24536;45.488;12.238;2023-08-06T00:00:37;22.10;91.90
38788;DHT22;24536;45.488;12.238;2023-08-06T00:03:03;22.10;92.00
38788;DHT22;24536;45.488;12.238;2023-08-06T00:05:29;22.10;91.90
38788;DHT22;24536;45.488;12.238;2023-08-06T00:07:55;22.10;91.90
38788;DHT22;24536;45.488;12.238;2023-08-06T00:10:20;22.10;91.90
38788;DHT22;24536;45.488;12.238;2023-08-06T00:12:46;22.10;91.80
38788;DHT22;24536;45.488;12.238;2023-08-06T00:15:12;22.10;91.90
38788;DHT22;24536;45.488;12.238;2023-08-06T00:17:38;22.10;91.80
38788;DHT22;24536;45.488;12.238;2023-08-06T00:20:04;22.10;91.80
38788;DHT22;24536;45.488;12.238;2023-08-06T00:22:36;22.10;91.80
38788;DHT22;24536;45.488;12.238;2023-08-06T00:25:03;22.10;91.90
38788;DHT22;24536;45.488;12.238;2023-08-06T00:27:29;22.00;91.90
38788;DHT22;24536;45.488;12.238;2023-08-06T00:29:55;22.00;91.90
38788;DHT22;24536;45.488;12.238;2023-08-06T00:32:21;22.00;91.90
38788;DHT22;24536;45.488;12.238;2023-08-06T00:34:47;22.00;91.90
38788;DHT22;24536;45.488;12.238;2023-08-06T00:37:18;22.00;91.90
38788;DHT22;24536;45.488;12.238;2023-08-06T00:39:44;22.00;91.90
38788;DHT22;24536;45.488;12.238;2023-08-06T00:42:12;22.00;92.00
38788;DHT22;24536;45.488;12.238;2023-08-06T00:44:38;22.00;92.00
38788;DHT22;24536;45.488;12.238;2023-08-06T00:47:06;22.00;92.00
38788;DHT22;24536;45.488;12.238;2023-08-06T00:49:32;22.00;92.00
38788;DHT22;24536;45.488;12.238;2023-08-06T00:51:58;22.00;92.00
38788;DHT22;24536;45.488;12.238;2023-08-06T00:54:25;22.00;92.00
38788;DHT22;24536;45.488;12.238;2023-08-06T00:56:51;22.00;92.00
38788;DHT22;24536;45.488;12.238;2023-08-06T00:59:18;22.00;92.10
38788;DHT22;24536;45.488;12.238;2023-08-06T01:01:45;22.00;92.00
38788;DHT22;24536;45.488;12.238;2023-08-06T01:04:12;22.00;92.10
38788;DHT22;24536;45.488;12.238;2023-08-06T01:12:21;22.10;92.20
38788;DHT22;24536;45.488;12.238;2023-08-06T01:15:04;22.10;92.30
38788;DHT22;24536;45.488;12.238;2023-08-06T01:17:30;22.10;92.40
38788;DHT22;24536;45.488;12.238;2023-08-06T01:19:56;22.10;92.40
38788;DHT22;24536;45.488;12.238;2023-08-06T01:22:22;22.10;92.50
38788;DHT22;24536;45.488;12.238;2023-08-06T01:24:49;22.10;92.50
38788;DHT22;24536;45.488;12.238;2023-08-06T01:27:23;22.10;92.70
38788;DHT22;24536;45.488;12.238;2023-08-06T01:30:12;22.20;92.60
38788;DHT22;24536;45.488;12.238;2023-08-06T01:32:44;22.10;92.80
38788;DHT22;24536;45.488;12.238;2023-08-06T01:35:12;22.10;92.50
38788;DHT22;24536;45.488;12.238;2023-08-06T01:37:39;22.10;92.50
38788;DHT22;24536;45.488;12.238;2023-08-06T01:40:10;22.10;92.50
38788;DHT22;24536;45.488;12.238;2023-08-06T01:42:36;22.20;92.60
38788;DHT22;24536;45.488;12.238;2023-08-06T01:45:02;22.20;92.70
38788;DHT22;24536;45.488;12.238;2023-08-06T01:47:27;22.10;92.70
38788;DHT22;24536;45.488;12.238;2023-08-06T01:49:53;22.10;92.70
38788;DHT22;24536;45.488;12.238;2023-08-06T01:52:19;22.20;92.80
38788;DHT22;24536;45.488;12.238;2023-08-06T01:54:44;22.10;92.70
38788;DHT22;24536;45.488;12.238;2023-08-06T01:57:10;22.10;92.90
38788;DHT22;24536;45.488;12.238;2023-08-06T01:59:36;22.10;92.80
38788;DHT22;24536;45.488;12.238;2023-08-06T02:02:01;22.10;92.90
38788;DHT22;24536;45.488;12.238;2023-08-06T02:04:27;22.10;93.00
38788;DHT22;24536;45.488;12.238;2023-08-06T02:06:53;22.10;93.00
38788;DHT22;24536;45.488;12.238;2023-08-06T02:09:19;22.10;93.00
38788;DHT22;24536;45.488;12.238;2023-08-06T02:11:44;22.10;93.00
38788;DHT22;24536;45.488;12.238;2023-08-06T02:14:10;22.10;93.10
38788;DHT22;24536;45.488;12.238;2023-08-06T02:16:36;22.00;93.00
38788;DHT22;24536;45.488;12.238;2023-08-06T02:19:01;22.00;93.10
38788;DHT22;24536;45.488;12.238;2023-08-06T02:21:27;22.10;93.10
38788;DHT22;24536;45.488;12.238;2023-08-06T02:23:53;22.10;93.20
38788;DHT22;24536;45.488;12.238;2023-08-06T02:26:19;22.10;93.20
38788;DHT22;24536;45.488;12.238;2023-08-06T02:28:44;22.10;93.20
38788;DHT22;24536;45.488;12.238;2023-08-06T02:31:10;22.10;93.10
38788;DHT22;24536;45.488;12.238;2023-08-06T02:33:36;22.10;93.10
38788;DHT22;24536;45.488;12.238;2023-08-06T02:36:02;22.10;93.10
38788;DHT22;24536;45.488;12.238;2023-08-06T02:38:32;22.00;93.10
38788;DHT22;24536;45.488;12.238;2023-08-06T02:40:57;22.00;93.10
38788;DHT22;24536;45.488;12.238;2023-08-06T02:43:23;22.00;93.30
38788;DHT22;24536;45.488;12.238;2023-08-06T02:45:49;22.00;93.30
38788;DHT22;24536;45.488;12.238;2023-08-06T02:48:15;22.00;93.20
38788;DHT22;24536;45.488;12.238;2023-08-06T02:50:41;22.00;93.20
38788;DHT22;24536;45.488;12.238;2023-08-06T02:53:09;22.00;93.30
38788;DHT22;24536;45.488;12.238;2023-08-06T02:55:36;22.00;93.30
38788;DHT22;24536;45.488;12.238;2023-08-06T02:58:02;22.00;93.30
38788;DHT22;24536;45.488;12.238;2023-08-06T03:00:29;22.00;93.40
38788;DHT22;24536;45.488;12.238;2023-08-06T03:08:32;22.00;93.40
38788;DHT22;24536;45.488;12.238;2023-08-06T03:10:59;22.00;93.30
38788;DHT22;24536;45.488;12.238;2023-08-06T03:13:34;22.00;93.30
38788;DHT22;24536;45.488;12.238;2023-08-06T03:16:00;22.00;93.40
38788;DHT22;24536;45.488;12.238;2023-08-06T03:18:26;22.00;93.30
38788;DHT22;24536;45.488;12.238;2023-08-06T03:20:52;22.00;93.40
38788;DHT22;24536;45.488;12.238;2023-08-06T03:23:18;22.00;93.40
38788;DHT22;24536;45.488;12.238;2023-08-06T03:25:45;22.00;93.50
38788;DHT22;24536;45.488;12.238;2023-08-06T03:28:12;22.00;93.40
38788;DHT22;24536;45.488;12.238;2023-08-06T03:30:37;22.00;93.30
38788;DHT22;24536;45.488;12.238;2023-08-06T03:33:03;22.00;93.30
38788;DHT22;24536;45.488;12.238;2023-08-06T03:35:29;22.00;93.30
38788;DHT22;24536;45.488;12.238;2023-08-06T03:37:55;22.00;93.30
38788;DHT22;24536;45.488;12.238;2023-08-06T03:40:21;22.00;93.20
38788;DHT22;24536;45.488;12.238;2023-08-06T03:42:47;22.00;93.20
38788;DHT22;24536;45.488;12.238;2023-08-06T03:45:12;22.00;93.10
38788;DHT22;24536;45.488;12.238;2023-08-06T03:47:44;22.00;93.10
38788;DHT22;24536;45.488;12.238;2023-08-06T03:50:09;22.00;93.20
38788;DHT22;24536;45.488;12.238;2023-08-06T03:52:35;22.00;93.30
38788;DHT22;24536;45.488;12.238;2023-08-06T03:55:01;22.00;93.30
38788;DHT22;24536;45.488;12.238;2023-08-06T03:57:27;22.00;93.30
38788;DHT22;24536;45.488;12.238;2023-08-06T03:59:52;22.00;93.40
38788;DHT22;24536;45.488;12.238;2023-08-06T04:02:18;22.00;93.40
38788;DHT22;24536;45.488;12.238;2023-08-06T04:04:44;22.00;93.40
38788;DHT22;24536;45.488;12.238;2023-08-06T04:07:10;22.00;93.80
38788;DHT22;24536;45.488;12.238;2023-08-06T04:09:54;22.00;93.70
38788;DHT22;24536;45.488;12.238;2023-08-06T04:12:20;22.00;93.80
38788;DHT22;24536;45.488;12.238;2023-08-06T04:14:46;22.00;93.80
38788;DHT22;24536;45.488;12.238;2023-08-06T04:17:12;21.90;93.90
38788;DHT22;24536;45.488;12.238;2023-08-06T04:19:38;22.00;94.20
38788;DHT22;24536;45.488;12.238;2023-08-06T04:22:04;21.90;94.20
38788;DHT22;24536;45.488;12.238;2023-08-06T04:24:30;22.00;94.40
38788;DHT22;24536;45.488;12.238;2023-08-06T04:26:55;21.90;94.40
38788;DHT22;24536;45.488;12.238;2023-08-06T04:29:21;21.90;94.40
38788;DHT22;24536;45.488;12.238;2023-08-06T04:31:47;21.80;94.40
38788;DHT22;24536;45.488;12.238;2023-08-06T04:34:12;21.80;94.60
38788;DHT22;24536;45.488;12.238;2023-08-06T04:36:38;21.80;94.70
38788;DHT22;24536;45.488;12.238;2023-08-06T04:39:04;21.70;94.70
38788;DHT22;24536;45.488;12.238;2023-08-06T04:41:30;21.60;94.80
38788;DHT22;24536;45.488;12.238;2023-08-06T04:43:57;21.60;94.90
38788;DHT22;24536;45.488;12.238;2023-08-06T04:46:22;21.50;95.10
38788;DHT22;24536;45.488;12.238;2023-08-06T04:48:48;21.50;95.00
38788;DHT22;24536;45.488;12.238;2023-08-06T04:51:14;21.60;95.10
38788;DHT22;24536;45.488;12.238;2023-08-06T04:53:40;21.60;95.20
38788;DHT22;24536;45.488;12.238;2023-08-06T04:56:06;21.60;95.10
38788;DHT22;24536;45.488;12.238;2023-08-06T04:58:32;21.70;95.10
38788;DHT22;24536;45.488;12.238;2023-08-06T05:00:58;21.70;95.10
38788;DHT22;24536;45.488;12.238;2023-08-06T05:03:23;21.70;95.00
38788;DHT22;24536;45.488;12.238;2023-08-06T05:05:49;21.70;95.00
38788;DHT22;24536;45.488;12.238;2023-08-06T05:08:15;21.80;95.10
38788;DHT22;24536;45.488;12.238;2023-08-06T05:10:43;21.80;95.00
38788;DHT22;24536;45.488;12.238;2023-08-06T05:13:09;21.80;95.10
38788;DHT22;24536;45.488;12.238;2023-08-06T05:15:35;21.80;95.10
38788;DHT22;24536;45.488;12.238;2023-08-06T05:18:01;21.80;95.10
38788;DHT22;24536;45.488;12.238;2023-08-06T05:20:26;21.80;95.10
38788;DHT22;24536;45.488;12.238;2023-08-06T05:22:52;21.70;95.20
38788;DHT22;24536;45.488;12.238;2023-08-06T05:25:18;21.80;95.40
38788;DHT22;24536;45.488;12.238;2023-08-06T05:27:44;21.80;95.40
38788;DHT22;24536;45.488;12.238;2023-08-06T05:30:10;21.80;95.40
38788;DHT22;24536;45.488;12.238;2023-08-06T05:32:36;21.80;95.30
38788;DHT22;24536;45.488;12.238;2023-08-06T05:35:01;21.80;95.30
38788;DHT22;24536;45.488;12.238;2023-08-06T05:37:28;21.90;95.40
38788;DHT22;24536;45.488;12.238;2023-08-06T05:39:53;21.90;95.40
38788;DHT22;24536;45.488;12.238;2023-08-06T05:42:19;21.90;95.40
38788;DHT22;24536;45.488;12.238;2023-08-06T05:44:45;22.00;95.40
38788;DHT22;24536;45.488;12.238;2023-08-06T05:47:11;22.00;95.30
38788;DHT22;24536;45.488;12.238;2023-08-06T05:49:37;22.00;95.20
38788;DHT22;24536;45.488;12.238;2023-08-06T05:52:03;22.00;95.30
38788;DHT22;24536;45.488;12.238;2023-08-06T05:54:31;22.00;95.20
38788;DHT22;24536;45.488;12.238;2023-08-06T05:56:57;22.00;95.40
38788;DHT22;24536;45.488;12.238;2023-08-06T05:59:23;22.10;95.40
38788;DHT22;24536;45.488;12.238;2023-08-06T06:01:48;22.00;95.30
38788;DHT22;24536;45.488;12.238;2023-08-06T06:04:14;22.10;95.20
38788;DHT22;24536;45.488;12.238;2023-08-06T06:06:40;22.10;95.20
38788;DHT22;24536;45.488;12.238;2023-08-06T06:09:07;22.10;95.30
38788;DHT22;24536;45.488;12.238;2023-08-06T06:11:34;22.20;95.60
38788;DHT22;24536;45.488;12.238;2023-08-06T06:14:05;22.30;95.30
38788;DHT22;24536;45.488;12.238;2023-08-06T06:16:34;22.30;95.10
38788;DHT22;24536;45.488;12.238;2023-08-06T06:19:01;22.30;95.10
38788;DHT22;24536;45.488;12.238;2023-08-06T06:21:27;22.40;94.80
38788;DHT22;24536;45.488;12.238;2023-08-06T06:23:58;22.40;94.70
38788;DHT22;24536;45.488;12.238;2023-08-06T06:26:24;22.50;94.80
38788;DHT22;24536;45.488;12.238;2023-08-06T06:28:49;22.50;94.50
38788;DHT22;24536;45.488;12.238;2023-08-06T06:31:15;22.50;94.40
38788;DHT22;24536;45.488;12.238;2023-08-06T06:33:46;22.50;94.40
38788;DHT22;24536;45.488;12.238;2023-08-06T06:36:16;22.50;93.80
38788;DHT22;24536;45.488;12.238;2023-08-06T06:38:49;22.50;94.00
38788;DHT22;24536;45.488;12.238;2023-08-06T06:41:15;22.60;94.00
38788;DHT22;24536;45.488;12.238;2023-08-06T06:43:40;22.60;93.90
38788;DHT22;24536;45.488;12.238;2023-08-06T06:46:07;22.60;93.80
38788;DHT22;24536;45.488;12.238;2023-08-06T06:48:33;22.70;93.90
38788;DHT22;24536;45.488;12.238;2023-08-06T06:50:59;22.70;93.90
38788;DHT22;24536;45.488;12.238;2023-08-06T06:53:25;22.70;93.70
38788;DHT22;24536;45.488;12.238;2023-08-06T06:56:02;22.80;93.80
38788;DHT22;24536;45.488;12.238;2023-08-06T06:58:28;22.70;93.70
38788;DHT22;24536;45.488;12.238;2023-08-06T07:00:53;22.80;93.90
38788;DHT22;24536;45.488;12.238;2023-08-06T07:03:20;22.80;94.00
38788;DHT22;24536;45.488;12.238;2023-08-06T07:05:46;22.90;93.80
38788;DHT22;24536;45.488;12.238;2023-08-06T07:08:12;23.00;93.70
38788;DHT22;24536;45.488;12.238;2023-08-06T07:10:38;23.10;93.50
38788;DHT22;24536;45.488;12.238;2023-08-06T07:13:03;23.10;93.20
38788;DHT22;24536;45.488;12.238;2023-08-06T07:15:29;23.10;93.30
38788;DHT22;24536;45.488;12.238;2023-08-06T07:17:55;23.20;93.20
38788;DHT22;24536;45.488;12.238;2023-08-06T07:20:21;23.20;93.10
38788;DHT22;24536;45.488;12.238;2023-08-06T07:22:46;23.30;93.10
38788;DHT22;24536;45.488;12.238;2023-08-06T07:25:12;23.30;92.90
38788;DHT22;24536;45.488;12.238;2023-08-06T07:27:39;23.40;93.10
38788;DHT22;24536;45.488;12.238;2023-08-06T07:30:05;23.40;93.00
38788;DHT22;24536;45.488;12.238;2023-08-06T07:32:31;23.40;93.00
38788;DHT22;24536;45.488;12.238;2023-08-06T07:34:57;23.50;93.10
38788;DHT22;24536;45.488;12.238;2023-08-06T07:37:29;23.60;92.90
38788;DHT22;24536;45.488;12.238;2023-08-06T07:39:55;23.60;92.90
38788;DHT22;24536;45.488;12.238;2023-08-06T07:42:21;23.70;92.90
38788;DHT22;24536;45.488;12.238;2023-08-06T07:45:06;23.70;92.90
38788;DHT22;24536;45.488;12.238;2023-08-06T07:47:32;23.60;92.30
38788;DHT22;24536;45.488;12.238;2023-08-06T07:49:58;23.50;92.60
38788;DHT22;24536;45.488;12.238;2023-08-06T07:52:23;23.50;92.80
38788;DHT22;24536;45.488;12.238;2023-08-06T07:54:49;23.50;92.80
38788;DHT22;24536;45.488;12.238;2023-08-06T07:57:15;23.60;92.80
38788;DHT22;24536;45.488;12.238;2023-08-06T07:59:41;23.70;92.70
38788;DHT22;24536;45.488;12.238;2023-08-06T08:02:06;23.80;92.60
38788;DHT22;24536;45.488;12.238;2023-08-06T08:04:32;23.90;92.30
38788;DHT22;24536;45.488;12.238;2023-08-06T08:06:58;24.00;92.60
38788;DHT22;24536;45.488;12.238;2023-08-06T08:09:23;24.10;92.70
38788;DHT22;24536;45.488;12.238;2023-08-06T08:11:49;24.20;92.40
38788;DHT22;24536;45.488;12.238;2023-08-06T08:14:16;24.30;92.20
38788;DHT22;24536;45.488;12.238;2023-08-06T08:16:42;24.40;91.90
38788;DHT22;24536;45.488;12.238;2023-08-06T08:19:09;24.40;91.80
38788;DHT22;24536;45.488;12.238;2023-08-06T08:21:35;24.40;91.60
38788;DHT22;24536;45.488;12.238;2023-08-06T08:24:01;24.40;91.40
38788;DHT22;24536;45.488;12.238;2023-08-06T08:26:26;24.40;91.60
38788;DHT22;24536;45.488;12.238;2023-08-06T08:28:56;24.50;91.60
38788;DHT22;24536;45.488;12.238;2023-08-06T08:31:22;24.60;91.20
38788;DHT22;24536;45.488;12.238;2023-08-06T08:33:47;24.60;91.10
38788;DHT22;24536;45.488;12.238;2023-08-06T08:36:13;24.60;90.60
38788;DHT22;24536;45.488;12.238;2023-08-06T08:38:39;24.70;91.00
38788;DHT22;24536;45.488;12.238;2023-08-06T08:41:05;24.80;91.30
38788;DHT22;24536;45.488;12.238;2023-08-06T08:43:31;24.80;90.90
38788;DHT22;24536;45.488;12.238;2023-08-06T08:45:57;24.90;90.90
38788;DHT22;24536;45.488;12.238;2023-08-06T08:48:27;25.00;90.80
38788;DHT22;24536;45.488;12.238;2023-08-06T08:50:53;25.00;90.80
38788;DHT22;24536;45.488;12.238;2023-08-06T08:53:21;25.20;90.90
38788;DHT22;24536;45.488;12.238;2023-08-06T08:55:48;25.30;90.80
38788;DHT22;24536;45.488;12.238;2023-08-06T08:58:15;25.40;90.60
38788;DHT22;24536;45.488;12.238;2023-08-06T09:00:46;25.40;90.40
38788;DHT22;24536;45.488;12.238;2023-08-06T09:03:16;25.40;90.20
38788;DHT22;24536;45.488;12.238;2023-08-06T09:05:49;25.50;90.10
38788;DHT22;24536;45.488;12.238;2023-08-06T09:08:18;25.60;90.20
38788;DHT22;24536;45.488;12.238;2023-08-06T09:10:44;25.70;90.00
38788;DHT22;24536;45.488;12.238;2023-08-06T09:13:13;25.70;89.50
38788;DHT22;24536;45.488;12.238;2023-08-06T09:15:39;25.80;89.50
38788;DHT22;24536;45.488;12.238;2023-08-06T09:18:11;25.90;89.00
38788;DHT22;24536;45.488;12.238;2023-08-06T09:20:38;26.00;87.90
38788;DHT22;24536;45.488;12.238;2023-08-06T09:23:10;26.00;87.80
38788;DHT22;24536;45.488;12.238;2023-08-06T09:25:39;26.10;88.10
38788;DHT22;24536;45.488;12.238;2023-08-06T09:28:08;26.20;87.70
38788;DHT22;24536;45.488;12.238;2023-08-06T09:30:37;26.20;86.70
38788;DHT22;24536;45.488;12.238;2023-08-06T09:33:08;26.30;86.50
38788;DHT22;24536;45.488;12.238;2023-08-06T09:35:40;26.40;85.90
38788;DHT22;24536;45.488;12.238;2023-08-06T09:38:09;26.50;86.40
38788;DHT22;24536;45.488;12.238;2023-08-06T09:40:36;26.60;86.20
38788;DHT22;24536;45.488;12.238;2023-08-06T09:43:02;26.80;85.00
38788;DHT22;24536;45.488;12.238;2023-08-06T09:45:36;26.90;84.50
38788;DHT22;24536;45.488;12.238;2023-08-06T09:48:07;27.10;83.70
38788;DHT22;24536;45.488;12.238;2023-08-06T09:50:35;27.10;83.10
38788;DHT22;24536;45.488;12.238;2023-08-06T09:53:03;27.20;83.10
38788;DHT22;24536;45.488;12.238;2023-08-06T09:55:29;27.30;82.60
38788;DHT22;24536;45.488;12.238;2023-08-06T09:57:55;27.40;82.00
38788;DHT22;24536;45.488;12.238;2023-08-06T10:00:22;27.50;81.00
38788;DHT22;24536;45.488;12.238;2023-08-06T10:02:49;27.60;80.50
38788;DHT22;24536;45.488;12.238;2023-08-06T10:05:17;27.70;79.60
38788;DHT22;24536;45.488;12.238;2023-08-06T10:07:44;27.90;79.60
38788;DHT22;24536;45.488;12.238;2023-08-06T10:10:10;28.00;79.20
38788;DHT22;24536;45.488;12.238;2023-08-06T10:12:40;28.20;77.50
38788;DHT22;24536;45.488;12.238;2023-08-06T10:15:09;28.30;77.50
38788;DHT22;24536;45.488;12.238;2023-08-06T10:17:36;28.40;75.00
38788;DHT22;24536;45.488;12.238;2023-08-06T10:20:07;28.40;76.60
38788;DHT22;24536;45.488;12.238;2023-08-06T10:22:33;28.50;76.40
38788;DHT22;24536;45.488;12.238;2023-08-06T10:25:01;28.60;75.90
38788;DHT22;24536;45.488;12.238;2023-08-06T10:27:36;28.70;75.90
38788;DHT22;24536;45.488;12.238;2023-08-06T10:30:24;28.70;74.00
38788;DHT22;24536;45.488;12.238;2023-08-06T10:32:51;28.70;74.00
38788;DHT22;24536;45.488;12.238;2023-08-06T10:35:47;28.80;74.40
38788;DHT22;24536;45.488;12.238;2023-08-06T10:38:22;29.00;73.20
38788;DHT22;24536;45.488;12.238;2023-08-06T10:46:26;29.30;73.40
38788;DHT22;24536;45.488;12.238;2023-08-06T10:48:52;29.40;72.70
38788;DHT22;24536;45.488;12.238;2023-08-06T10:51:18;29.50;72.90
38788;DHT22;24536;45.488;12.238;2023-08-06T10:53:46;29.70;72.50
38788;DHT22;24536;45.488;12.238;2023-08-06T10:56:14;29.80;72.80
38788;DHT22;24536;45.488;12.238;2023-08-06T10:58:41;29.90;72.30
38788;DHT22;24536;45.488;12.238;2023-08-06T11:01:07;30.00;71.90
38788;DHT22;24536;45.488;12.238;2023-08-06T11:03:33;30.00;71.60
38788;DHT22;24536;45.488;12.238;2023-08-06T11:06:00;30.10;71.90
38788;DHT22;24536;45.488;12.238;2023-08-06T11:08:32;30.20;71.80
38788;DHT22;24536;45.488;12.238;2023-08-06T11:11:19;30.40;71.20
38788;DHT22;24536;45.488;12.238;2023-08-06T11:13:49;30.40;70.30
38788;DHT22;24536;45.488;12.238;2023-08-06T11:16:17;30.50;70.20
38788;DHT22;24536;45.488;12.238;2023-08-06T11:18:42;30.60;70.00
38788;DHT22;24536;45.488;12.238;2023-08-06T11:21:08;30.70;69.60
38788;DHT22;24536;45.488;12.238;2023-08-06T11:23:35;30.90;70.20
38788;DHT22;24536;45.488;12.238;2023-08-06T11:26:01;31.10;70.20
38788;DHT22;24536;45.488;12.238;2023-08-06T11:28:27;31.20;69.40
38788;DHT22;24536;45.488;12.238;2023-08-06T11:30:53;31.40;68.30
38788;DHT22;24536;45.488;12.238;2023-08-06T11:33:29;31.40;68.50
38788;DHT22;24536;45.488;12.238;2023-08-06T11:35:57;31.50;67.80
38788;DHT22;24536;45.488;12.238;2023-08-06T11:38:28;31.70;67.50
38788;DHT22;24536;45.488;12.238;2023-08-06T11:40:54;32.00;67.10
38788;DHT22;24536;45.488;12.238;2023-08-06T11:43:20;32.20;66.90
38788;DHT22;24536;45.488;12.238;2023-08-06T11:45:51;32.40;65.60
38788;DHT22;24536;45.488;12.238;2023-08-06T11:48:19;32.60;65.80
38788;DHT22;24536;45.488;12.238;2023-08-06T11:50:45;32.90;65.90
38788;DHT22;24536;45.488;12.238;2023-08-06T11:53:14;33.20;64.60
38788;DHT22;24536;45.488;12.238;2023-08-06T11:55:41;33.50;63.90
38788;DHT22;24536;45.488;12.238;2023-08-06T11:58:06;33.70;63.10
38788;DHT22;24536;45.488;12.238;2023-08-06T12:00:32;33.90;62.70
38788;DHT22;24536;45.488;12.238;2023-08-06T12:02:58;34.00;62.40
38788;DHT22;24536;45.488;12.238;2023-08-06T12:05:30;34.10;61.60
38788;DHT22;24536;45.488;12.238;2023-08-06T12:08:00;34.10;60.50
38788;DHT22;24536;45.488;12.238;2023-08-06T12:10:30;34.10;61.50
38788;DHT22;24536;45.488;12.238;2023-08-06T12:12:56;34.30;61.80
38788;DHT22;24536;45.488;12.238;2023-08-06T12:15:22;34.50;61.70
38788;DHT22;24536;45.488;12.238;2023-08-06T12:17:49;34.60;61.40
38788;DHT22;24536;45.488;12.238;2023-08-06T12:20:15;34.70;60.50
38788;DHT22;24536;45.488;12.238;2023-08-06T12:22:41;34.80;60.40
38788;DHT22;24536;45.488;12.238;2023-08-06T12:25:08;34.90;60.70
38788;DHT22;24536;45.488;12.238;2023-08-06T12:27:38;35.00;59.40
38788;DHT22;24536;45.488;12.238;2023-08-06T12:30:05;35.10;58.20
38788;DHT22;24536;45.488;12.238;2023-08-06T12:32:31;35.00;58.90
38788;DHT22;24536;45.488;12.238;2023-08-06T12:34:57;35.00;59.70
38788;DHT22;24536;45.488;12.238;2023-08-06T12:37:25;35.00;59.30
38788;DHT22;24536;45.488;12.238;2023-08-06T12:39:50;35.00;58.60
38788;DHT22;24536;45.488;12.238;2023-08-06T12:42:16;35.00;58.80
38788;DHT22;24536;45.488;12.238;2023-08-06T12:44:42;35.00;58.50
38788;DHT22;24536;45.488;12.238;2023-08-06T12:47:08;35.10;58.70
38788;DHT22;24536;45.488;12.238;2023-08-06T12:49:34;35.20;57.70
38788;DHT22;24536;45.488;12.238;2023-08-06T12:52:00;35.10;58.20
38788;DHT22;24536;45.488;12.238;2023-08-06T12:54:26;35.10;58.00
38788;DHT22;24536;45.488;12.238;2023-08-06T12:56:52;35.10;58.50
38788;DHT22;24536;45.488;12.238;2023-08-06T12:59:18;34.90;58.00
38788;DHT22;24536;45.488;12.238;2023-08-06T13:01:45;34.80;59.10
38788;DHT22;24536;45.488;12.238;2023-08-06T13:04:11;34.80;58.50
38788;DHT22;24536;45.488;12.238;2023-08-06T13:06:37;34.80;57.60
38788;DHT22;24536;45.488;12.238;2023-08-06T13:09:04;34.70;58.30
38788;DHT22;24536;45.488;12.238;2023-08-06T13:11:31;34.70;58.30
38788;DHT22;24536;45.488;12.238;2023-08-06T13:14:10;34.80;58.30
38788;DHT22;24536;45.488;12.238;2023-08-06T13:16:37;34.80;56.80
38788;DHT22;24536;45.488;12.238;2023-08-06T13:19:03;34.60;56.70
38788;DHT22;24536;45.488;12.238;2023-08-06T13:24:08;34.10;58.90
38788;DHT22;24536;45.488;12.238;2023-08-06T13:26:33;34.20;58.90
38788;DHT22;24536;45.488;12.238;2023-08-06T13:29:00;34.10;58.40
38788;DHT22;24536;45.488;12.238;2023-08-06T13:31:27;34.00;59.20
38788;DHT22;24536;45.488;12.238;2023-08-06T13:33:54;33.90;58.70
38788;DHT22;24536;45.488;12.238;2023-08-06T13:36:21;33.80;59.10
38788;DHT22;24536;45.488;12.238;2023-08-06T13:38:47;33.80;60.10
38788;DHT22;24536;45.488;12.238;2023-08-06T13:41:14;33.90;60.00
38788;DHT22;24536;45.488;12.238;2023-08-06T13:43:40;34.00;60.10
38788;DHT22;24536;45.488;12.238;2023-08-06T13:46:06;33.90;59.60
38788;DHT22;24536;45.488;12.238;2023-08-06T13:48:32;33.80;58.80
38788;DHT22;24536;45.488;12.238;2023-08-06T13:50:57;33.70;59.30
38788;DHT22;24536;45.488;12.238;2023-08-06T13:53:23;33.30;59.00
38788;DHT22;24536;45.488;12.238;2023-08-06T13:55:50;33.00;59.50
38788;DHT22;24536;45.488;12.238;2023-08-06T13:58:16;32.70;60.20
38788;DHT22;24536;45.488;12.238;2023-08-06T14:00:42;32.30;60.80
38788;DHT22;24536;45.488;12.238;2023-08-06T14:03:07;32.10;61.30
38788;DHT22;24536;45.488;12.238;2023-08-06T14:05:34;31.80;61.40
38788;DHT22;24536;45.488;12.238;2023-08-06T14:08:00;31.60;62.10
38788;DHT22;24536;45.488;12.238;2023-08-06T14:10:25;31.50;63.10
38788;DHT22;24536;45.488;12.238;2023-08-06T14:12:51;31.30;63.20
38788;DHT22;24536;45.488;12.238;2023-08-06T14:15:17;31.20;63.40
38788;DHT22;24536;45.488;12.238;2023-08-06T14:17:43;31.00;63.70
38788;DHT22;24536;45.488;12.238;2023-08-06T14:20:09;30.90;64.00
38788;DHT22;24536;45.488;12.238;2023-08-06T14:22:37;30.70;64.10
38788;DHT22;24536;45.488;12.238;2023-08-06T14:25:03;30.50;64.80
38788;DHT22;24536;45.488;12.238;2023-08-06T14:27:29;30.40;65.00
38788;DHT22;24536;45.488;12.238;2023-08-06T14:29:55;30.30;65.20
38788;DHT22;24536;45.488;12.238;2023-08-06T14:32:20;30.20;65.30
38788;DHT22;24536;45.488;12.238;2023-08-06T14:34:47;30.00;65.70
38788;DHT22;24536;45.488;12.238;2023-08-06T14:37:13;30.00;66.70
38788;DHT22;24536;45.488;12.238;2023-08-06T14:39:38;29.90;66.70
38788;DHT22;24536;45.488;12.238;2023-08-06T14:42:05;29.80;67.20
38788;DHT22;24536;45.488;12.238;2023-08-06T14:44:31;29.80;67.70
38788;DHT22;24536;45.488;12.238;2023-08-06T14:46:57;29.70;67.60
38788;DHT22;24536;45.488;12.238;2023-08-06T14:49:23;29.60;68.00
38788;DHT22;24536;45.488;12.238;2023-08-06T14:51:49;29.60;68.20
38788;DHT22;24536;45.488;12.238;2023-08-06T14:54:15;29.50;68.60
38788;DHT22;24536;45.488;12.238;2023-08-06T14:56:41;29.40;69.00
38788;DHT22;24536;45.488;12.238;2023-08-06T14:59:07;29.20;69.10
38788;DHT22;24536;45.488;12.238;2023-08-06T15:01:32;29.00;69.10
38788;DHT22;24536;45.488;12.238;2023-08-06T15:03:58;28.90;69.00
38788;DHT22;24536;45.488;12.238;2023-08-06T15:06:24;28.70;69.60
38788;DHT22;24536;45.488;12.238;2023-08-06T15:08:50;28.30;70.30
38788;DHT22;24536;45.488;12.238;2023-08-06T15:11:15;28.10;70.60
38788;DHT22;24536;45.488;12.238;2023-08-06T15:13:41;27.80;70.70
38788;DHT22;24536;45.488;12.238;2023-08-06T15:16:07;27.60;70.30
38788;DHT22;24536;45.488;12.238;2023-08-06T15:18:33;27.40;68.70
38788;DHT22;24536;45.488;12.238;2023-08-06T15:20:59;27.40;69.90
38788;DHT22;24536;45.488;12.238;2023-08-06T15:23:25;27.40;70.20
38788;DHT22;24536;45.488;12.238;2023-08-06T15:25:50;27.50;69.90
38788;DHT22;24536;45.488;12.238;2023-08-06T15:28:16;27.60;68.60
38788;DHT22;24536;45.488;12.238;2023-08-06T15:30:49;27.60;68.30
38788;DHT22;24536;45.488;12.238;2023-08-06T15:33:17;27.70;68.50